Time;durP1;ratioP1;P1;durP2;ratioP2;P2;SDS_P1;SDS_P2;PMS_P1;PMS_P2;Temp;Humidity;BMP_temperature;BMP_pressure;BME280_temperature;BME280_humidity;BME280_pressure;Samples;Min_cycle;Max_cycle;Signal;HPM_P1;HPM_P2
2022/01/06 00:03:34;;;;;;;12.77;2.23;;;;;;;6.78;54.90;100221.81;10433695;28;20217;-87
2022/01/06 00:08:38;;;;;;;11.67;1.90;;;;;;;8.12;51.18;100217.47;10422016;28;20220;-86
2022/01/06 00:13:57;;;;;;;12.23;2.27;;;;;;;7.36;52.03;100217.94;10445333;28;20481;-87
2022/01/06 00:24:04;;;;;;;14.00;2.57;;;;;;;7.29;52.41;100226.69;10461204;28;20226;-86
2022/01/06 00:29:06;;;;;;;10.03;2.83;;;;;;;7.36;52.84;100232.75;10445071;28;20587;-86
2022/01/06 00:34:10;;;;;;;14.70;2.70;;;;;;;7.81;50.81;100230.31;10439184;28;20196;-86
2022/01/06 00:39:13;;;;;;;10.07;2.50;;;;;;;6.36;54.18;100252.47;10454625;28;20203;-85
2022/01/06 00:44:17;;;;;;;10.60;2.47;;;;;;;7.76;51.52;100248.00;10446810;28;20213;-85
2022/01/06 00:49:22;;;;;;;14.93;2.13;;;;;;;7.48;52.41;100246.25;10475274;28;20555;-86
2022/01/06 00:54:25;;;;;;;10.33;1.90;;;;;;;7.38;52.25;100263.16;10461056;28;20208;-86
2022/01/06 00:59:27;;;;;;;11.73;2.20;;;;;;;7.09;53.38;100271.69;10460538;28;20195;-87
2022/01/06 01:04:29;;;;;;;9.83;2.10;;;;;;;7.36;52.62;100274.69;10466840;28;20528;-87
2022/01/06 01:09:32;;;;;;;11.83;2.13;;;;;;;7.44;52.44;100279.56;10460276;28;20223;-84
2022/01/06 01:14:53;;;;;;;9.70;2.30;;;;;;;7.48;51.96;100280.63;10468046;28;20235;-88
2022/01/06 01:19:56;;;;;;;11.90;2.63;;;;;;;7.01;53.48;100281.53;10434639;28;20204;-86
2022/01/06 01:24:58;;;;;;;12.13;2.60;;;;;;;7.55;51.35;100278.28;10416677;28;20257;-87
2022/01/06 01:30:09;;;;;;;14.53;2.80;;;;;;;7.58;51.34;100280.47;10484367;28;20276;-88
2022/01/06 01:35:12;;;;;;;13.33;2.20;;;;;;;7.54;51.32;100281.38;10464293;28;20250;-87
2022/01/06 01:40:14;;;;;;;14.40;2.33;;;;;;;7.74;50.30;100297.00;10459652;28;20199;-88
2022/01/06 01:45:18;;;;;;;9.97;2.50;;;;;;;7.03;52.01;100307.22;10459430;28;20266;-88
2022/01/06 01:50:21;;;;;;;10.07;2.07;;;;;;;7.84;49.92;100311.66;10481647;28;20294;-87
2022/01/06 01:55:26;;;;;;;11.73;2.67;;;;;;;7.43;50.38;100311.44;10438396;28;20254;-87
2022/01/06 02:00:30;;;;;;;12.60;2.87;;;;;;;7.02;51.31;100315.91;10476670;28;20232;-87
2022/01/06 02:05:33;;;;;;;14.67;2.73;;;;;;;7.48;50.12;100311.38;10484960;28;20256;-88
2022/01/06 02:10:35;;;;;;;14.97;3.10;;;;;;;7.52;50.16;100320.81;10476082;28;20269;-84
2022/01/06 02:15:37;;;;;;;13.00;3.10;;;;;;;7.46;50.42;100316.44;10460445;28;20231;-86
2022/01/06 02:20:40;;;;;;;11.67;2.23;;;;;;;6.98;51.80;100337.19;10468583;28;20196;-85
2022/01/06 02:25:42;;;;;;;13.87;2.77;;;;;;;6.82;52.33;100329.00;10429326;28;20258;-86
2022/01/06 02:30:49;;;;;;;10.80;2.40;;;;;;;7.05;51.66;100334.84;10449452;28;20215;-85
2022/01/06 02:35:54;;;;;;;14.83;2.60;;;;;;;7.61;50.23;100334.13;10502243;28;20249;-85
2022/01/06 02:40:56;;;;;;;14.30;2.37;;;;;;;7.63;50.29;100348.66;10484204;28;20203;-89
2022/01/06 02:45:58;;;;;;;11.13;2.50;;;;;;;7.15;50.62;100359.91;10471092;28;20281;-88
2022/01/06 02:51:01;;;;;;;11.87;2.93;;;;;;;7.44;50.52;100362.59;10473176;28;20224;-85
2022/01/06 02:56:03;;;;;;;6.43;1.70;;;;;;;7.66;49.40;100362.84;10464329;28;20512;-86
2022/01/06 03:01:15;;;;;;;19.43;2.93;;;;;;;8.20;48.52;100364.22;10443284;28;20501;-87
2022/01/06 03:06:18;;;;;;;9.67;2.67;;;;;;;7.47;49.98;100379.59;10459128;28;20232;-86
2022/01/06 03:11:25;;;;;;;15.80;2.13;;;;;;;7.99;48.15;100372.13;10466565;28;20293;-86
2022/01/06 03:16:27;;;;;;;10.33;2.73;;;;;;;8.04;48.15;100374.81;10468269;28;20269;-86
2022/01/06 03:21:30;;;;;;;11.27;1.87;;;;;;;7.61;48.76;100374.09;10468440;28;20242;-86
2022/01/06 03:26:32;;;;;;;12.30;2.53;;;;;;;7.28;49.59;100389.91;10468135;28;20241;-89
2022/01/06 03:31:35;;;;;;;12.73;2.00;;;;;;;7.44;49.60;100391.38;10463731;28;20216;-88
2022/01/06 03:36:37;;;;;;;13.13;2.33;;;;;;;7.10;49.96;100397.09;10447907;28;20615;-89
2022/01/06 03:41:39;;;;;;;13.67;2.27;;;;;;;7.09;50.25;100394.59;10430586;28;20496;-89
2022/01/06 03:46:42;;;;;;;11.23;2.47;;;;;;;6.61;51.66;100413.25;10463328;28;20199;-86
2022/01/06 03:51:44;;;;;;;14.10;2.20;;;;;;;7.10;50.61;100413.03;10465473;28;20281;-88
2022/01/06 03:56:48;;;;;;;12.87;2.47;;;;;;;6.46;51.84;100417.03;10459036;28;20547;-88
2022/01/06 04:01:51;;;;;;;14.90;2.57;;;;;;;7.55;49.15;100415.28;10450023;28;20246;-87
2022/01/06 04:06:55;;;;;;;13.40;2.63;;;;;;;7.65;48.35;100431.06;10453648;28;20583;-88
2022/01/06 04:11:57;;;;;;;17.23;2.43;;;;;;;7.77;47.78;100427.81;10471691;28;20247;-87
2022/01/06 04:17:00;;;;;;;10.63;2.87;;;;;;;7.76;48.12;100437.38;10463695;28;20231;-88
2022/01/06 04:22:05;;;;;;;11.30;2.57;;;;;;;7.09;49.62;100450.47;10422331;28;20247;-87
2022/01/06 04:27:07;;;;;;;10.37;1.90;;;;;;;7.17;49.59;100455.44;10406757;28;20266;-87
2022/01/06 04:32:09;;;;;;;19.93;3.30;;;;;;;7.27;49.57;100455.31;10393088;28;20293;-87
2022/01/06 04:37:13;;;;;;;11.37;2.70;;;;;;;7.27;49.33;100462.84;10410715;28;20209;-87
2022/01/06 04:42:15;;;;;;;11.23;2.70;;;;;;;7.25;49.36;100471.53;10489137;28;20187;-88
2022/01/06 04:47:17;;;;;;;16.77;2.63;;;;;;;7.33;49.18;100467.28;10487498;28;20208;-87
2022/01/06 04:52:19;;;;;;;12.50;2.33;;;;;;;7.19;49.15;100472.75;10451741;28;20229;-88
2022/01/06 04:57:22;;;;;;;10.40;2.50;;;;;;;7.37;48.84;100480.34;10462871;28;20216;-87
2022/01/06 05:02:24;;;;;;;12.83;2.30;;;;;;;7.24;49.03;100492.25;10466449;28;20222;-86
2022/01/06 05:07:27;;;;;;;14.23;2.73;;;;;;;6.99;49.65;100501.66;10461488;28;20702;-86
2022/01/06 05:12:30;;;;;;;19.00;2.00;;;;;;;7.15;49.38;100496.81;10443965;28;20617;-89
2022/01/06 05:17:33;;;;;;;13.30;2.43;;;;;;;6.94;49.36;100509.28;10460582;28;20289;-88
2022/01/06 05:22:41;;;;;;;10.10;2.30;;;;;;;6.99;49.48;100507.25;10460816;28;20278;-85
2022/01/06 05:27:44;;;;;;;10.90;2.33;;;;;;;7.30;48.93;100513.41;10435728;28;20262;-86
2022/01/06 05:32:46;;;;;;;16.50;2.20;;;;;;;7.08;49.14;100511.09;10435563;28;20232;-85
2022/01/06 05:37:48;;;;;;;10.80;2.40;;;;;;;7.07;49.02;100530.94;10472578;28;20253;-87
2022/01/06 05:42:50;;;;;;;10.47;2.47;;;;;;;7.09;48.80;100535.13;10453171;28;20254;-87
2022/01/06 05:47:53;;;;;;;14.80;3.20;;;;;;;7.01;48.97;100537.69;10428810;28;20266;-86
2022/01/06 05:52:56;;;;;;;10.73;2.33;;;;;;;6.71;49.80;100552.78;10457431;28;20265;-87
2022/01/06 05:57:58;;;;;;;21.27;3.43;;;;;;;6.52;49.93;100561.00;10461858;28;20196;-89
2022/01/06 06:03:01;;;;;;;11.87;2.40;;;;;;;6.80;49.66;100563.03;10448282;28;20219;-89
2022/01/06 06:08:07;;;;;;;13.77;2.77;;;;;;;6.74;49.98;100566.97;10445381;28;20285;-86
2022/01/06 06:13:09;;;;;;;12.40;2.87;;;;;;;6.97;49.30;100586.91;10443455;28;20227;-88
2022/01/06 06:18:12;;;;;;;14.33;3.10;;;;;;;6.91;49.35;100582.47;10472003;28;20236;-86
2022/01/06 06:23:14;;;;;;;15.87;3.20;;;;;;;7.08;49.29;100577.31;10458488;28;20234;-87
2022/01/06 06:28:16;;;;;;;10.73;2.40;;;;;;;7.04;49.18;100590.19;10449969;28;20539;-87
2022/01/06 06:33:19;;;;;;;14.27;3.30;;;;;;;6.94;49.65;100579.94;10465205;28;20253;-87
2022/01/06 06:38:21;;;;;;;12.97;3.10;;;;;;;7.27;48.50;100592.25;10469407;28;20321;-87
2022/01/06 06:43:23;;;;;;;14.17;3.27;;;;;;;6.93;49.71;100603.41;10429351;28;20201;-87
2022/01/06 06:48:26;;;;;;;17.33;2.77;;;;;;;7.07;49.64;100611.97;10443665;28;20270;-88
2022/01/06 06:53:29;;;;;;;12.87;2.40;;;;;;;6.64;50.63;100613.66;10457090;28;20223;-87
2022/01/06 06:58:31;;;;;;;11.40;2.40;;;;;;;7.07;49.97;100618.38;10431557;28;20208;-86
2022/01/06 07:03:33;;;;;;;14.17;3.77;;;;;;;6.84;49.93;100628.34;10431339;28;20203;-87
2022/01/06 07:08:35;;;;;;;12.80;2.43;;;;;;;7.00;49.84;100636.59;10460666;28;20230;-87
2022/01/06 07:13:38;;;;;;;17.40;2.80;;;;;;;6.93;49.44;100652.84;10485110;28;20231;-87
2022/01/06 07:18:40;;;;;;;12.47;2.50;;;;;;;6.61;50.35;100651.38;10464442;28;20207;-85
2022/01/06 07:23:42;;;;;;;11.73;2.63;;;;;;;6.46;50.79;100665.44;10446132;28;20205;-87
2022/01/06 07:28:45;;;;;;;8.60;2.70;;;;;;;6.31;51.26;100673.88;10456895;28;20264;-88
2022/01/06 07:33:47;;;;;;;13.07;2.97;;;;;;;6.78;49.77;100685.34;10478027;28;20469;-87
2022/01/06 07:38:49;;;;;;;10.77;2.77;;;;;;;6.62;50.09;100691.28;10487305;28;20212;-87
2022/01/06 07:43:51;;;;;;;16.97;3.23;;;;;;;6.57;49.51;100697.75;10471197;28;20231;-88
2022/01/06 07:48:57;;;;;;;10.73;2.80;;;;;;;6.79;49.69;100714.94;10461169;28;20226;-87
2022/01/06 07:54:00;;;;;;;11.37;3.10;;;;;;;6.49;50.14;100732.66;10488245;28;20279;-87
2022/01/06 07:59:02;;;;;;;12.37;2.97;;;;;;;6.68;49.48;100721.69;10487658;28;20203;-87
2022/01/06 08:04:05;;;;;;;13.33;2.50;;;;;;;7.10;48.66;100732.34;10469486;28;20204;-87
2022/01/06 08:09:07;;;;;;;16.23;3.20;;;;;;;6.83;49.34;100738.38;10453583;28;20223;-87
2022/01/06 08:14:09;;;;;;;10.93;2.83;;;;;;;6.59;49.56;100742.13;10458689;28;20245;-87
2022/01/06 08:19:12;;;;;;;11.50;3.50;;;;;;;6.91;49.17;100748.09;10479631;28;20214;-87
2022/01/06 08:24:14;;;;;;;14.40;3.57;;;;;;;6.64;49.73;100745.72;10493377;28;20207;-87
2022/01/06 08:29:16;;;;;;;11.40;3.63;;;;;;;6.56;50.47;100762.25;10460709;28;20203;-88
2022/01/06 08:34:18;;;;;;;13.80;3.20;;;;;;;6.89;49.46;100759.56;10452379;28;20608;-87
2022/01/06 08:39:22;;;;;;;12.03;3.27;;;;;;;6.92;49.57;100771.28;10448116;28;20600;-87
2022/01/06 08:44:24;;;;;;;9.33;3.20;;;;;;;6.89;49.85;100778.28;10453663;28;20670;-87
2022/01/06 08:49:27;;;;;;;14.37;3.40;;;;;;;7.09;49.11;100771.75;10432076;28;20219;-87
2022/01/06 08:54:30;;;;;;;10.23;2.97;;;;;;;7.18;48.87;100770.06;10447249;28;20284;-87
2022/01/06 08:59:32;;;;;;;11.30;2.80;;;;;;;6.80;50.36;100775.25;10423262;28;20263;-87
2022/01/06 09:04:35;;;;;;;7.97;2.87;;;;;;;6.34;52.08;100776.53;10406066;28;20671;-87
2022/01/06 09:09:39;;;;;;;15.03;2.93;;;;;;;7.29;49.12;100784.78;10424156;28;20262;-87
2022/01/06 09:14:42;;;;;;;11.00;3.40;;;;;;;7.21;49.54;100798.25;10438769;28;20265;-88
2022/01/06 09:19:45;;;;;;;15.30;3.73;;;;;;;7.01;50.25;100798.31;10476722;28;20253;-86
2022/01/06 09:24:49;;;;;;;19.07;3.87;;;;;;;7.11;50.05;100794.66;10433635;28;20204;-87
2022/01/06 09:29:54;;;;;;;15.50;4.33;;;;;;;6.94;50.26;100794.19;10424891;28;20225;-88
2022/01/06 09:34:56;;;;;;;12.77;3.87;;;;;;;7.42;49.55;100803.72;10430006;28;20670;-88
2022/01/06 09:39:59;;;;;;;11.57;3.90;;;;;;;7.08;50.47;100812.00;10438483;28;20581;-87
2022/01/06 09:45:03;;;;;;;16.47;4.17;;;;;;;6.71;50.35;100818.88;10447711;28;20231;-87
2022/01/06 09:50:10;;;;;;;26.33;10.27;;;;;;;6.59;51.88;100820.31;10446557;28;20679;-87
2022/01/06 09:55:13;;;;;;;21.40;7.03;;;;;;;6.84;50.48;100835.00;10480452;28;20205;-86
2022/01/06 10:00:18;;;;;;;18.93;7.30;;;;;;;7.39;50.15;100824.69;10447914;28;20258;-87
2022/01/06 10:05:20;;;;;;;14.57;4.17;;;;;;;7.07;51.61;100832.66;10462842;28;20234;-88
2022/01/06 10:10:27;;;;;;;20.43;8.73;;;;;;;7.38;49.89;100824.97;10466938;28;20227;-88
2022/01/06 10:15:29;;;;;;;18.60;9.87;;;;;;;7.38;50.69;100811.84;10456736;28;20643;-87
2022/01/06 10:20:32;;;;;;;16.60;5.93;;;;;;;8.05;48.52;100814.97;10433405;28;20224;-87
2022/01/06 10:25:38;;;;;;;15.43;6.03;;;;;;;7.56;50.00;100813.97;10434064;28;20251;-87
2022/01/06 10:30:54;;;;;;;25.33;7.10;;;;;;;7.10;50.38;100809.75;10443618;28;20704;-88
2022/01/06 10:36:07;;;;;;;13.80;4.47;;;;;;;8.22;48.66;100810.59;10451617;28;20500;-87
2022/01/06 10:41:15;;;;;;;27.97;10.07;;;;;;;8.12;48.33;100813.50;10442547;28;20227;-87
2022/01/06 10:46:47;;;;;;;18.33;5.87;;;;;;;7.47;49.98;100817.66;10431330;28;20207;-88
2022/01/06 10:51:50;;;;;;;16.03;3.50;;;;;;;7.58;49.50;100822.91;10437452;28;20227;-88
2022/01/06 10:57:01;;;;;;;29.30;10.07;;;;;;;7.98;49.32;100823.72;10445512;28;20235;-87
2022/01/06 11:02:05;;;;;;;13.03;3.97;;;;;;;7.79;49.58;100817.13;10440120;28;20219;-87
2022/01/06 11:07:08;;;;;;;17.83;3.57;;;;;;;8.34;48.10;100814.97;10425361;28;20282;-87
2022/01/06 11:12:30;;;;;;;19.33;6.27;;;;;;;8.40;47.44;100808.25;10459163;28;20220;-87
2022/01/06 11:17:33;;;;;;;15.50;4.50;;;;;;;8.61;47.12;100807.72;10433938;28;20228;-87
2022/01/06 11:22:47;;;;;;;18.07;4.33;;;;;;;7.84;48.21;100815.16;10435642;28;20200;-87
2022/01/06 11:28:03;;;;;;;13.33;3.40;;;;;;;8.64;47.55;100818.31;10426091;28;20247;-87
2022/01/06 11:33:06;;;;;;;15.00;3.87;;;;;;;7.79;49.83;100817.13;10418040;28;20224;-87
2022/01/06 11:38:08;;;;;;;15.37;4.73;;;;;;;7.72;49.53;100811.91;10429717;28;20208;-89
2022/01/06 11:43:10;;;;;;;13.27;3.67;;;;;;;9.13;46.06;100819.94;10428496;28;20247;-87
2022/01/06 11:48:16;;;;;;;11.37;3.50;;;;;;;8.15;48.76;100815.69;10439715;28;20274;-87
2022/01/06 11:53:29;;;;;;;17.23;3.23;;;;;;;9.10;46.78;100819.72;10429144;28;20224;-88
2022/01/06 11:58:31;;;;;;;16.23;3.43;;;;;;;9.33;46.13;100808.44;10442779;28;20264;-87
2022/01/06 12:03:38;;;;;;;15.50;3.33;;;;;;;8.59;47.64;100814.72;10432061;28;20221;-88
2022/01/06 12:08:41;;;;;;;21.00;6.93;;;;;;;8.07;48.81;100819.16;10457390;28;20227;-87
2022/01/06 12:13:45;;;;;;;16.63;5.57;;;;;;;8.08;48.88;100820.81;10431286;28;20231;-88
2022/01/06 12:18:48;;;;;;;17.13;5.43;;;;;;;7.97;48.75;100819.25;10439201;28;20209;-88
2022/01/06 12:24:05;;;;;;;18.87;6.40;;;;;;;8.55;47.79;100820.09;10433870;28;20222;-88
2022/01/06 12:29:19;;;;;;;17.40;6.70;;;;;;;7.94;48.71;100829.06;10424306;28;20216;-88
2022/01/06 12:34:21;;;;;;;12.83;6.10;;;;;;;8.46;47.54;100827.47;10428776;28;20258;-88
2022/01/06 12:39:24;;;;;;;18.63;7.70;;;;;;;8.11;49.71;100820.25;10439133;28;20262;-88
2022/01/06 12:44:28;;;;;;;15.13;8.13;;;;;;;8.26;48.39;100822.91;10435073;28;20216;-88
2022/01/06 12:49:30;;;;;;;20.53;8.60;;;;;;;7.45;50.03;100817.94;10430283;28;20212;-87
2022/01/06 12:54:35;;;;;;;18.47;9.63;;;;;;;7.59;50.37;100823.72;10446707;28;20520;-88
2022/01/06 12:59:39;;;;;;;25.30;11.20;;;;;;;7.75;50.07;100816.06;10452861;28;20265;-88
2022/01/06 13:04:48;;;;;;;22.57;10.47;;;;;;;7.45;49.31;100819.91;10437336;28;20208;-88
2022/01/06 13:09:57;;;;;;;19.30;10.87;;;;;;;8.28;47.93;100817.81;10423690;28;20274;-88
2022/01/06 13:14:59;;;;;;;24.63;10.50;;;;;;;8.04;48.34;100819.72;10436330;28;20282;-89
2022/01/06 13:20:14;;;;;;;28.07;12.13;;;;;;;7.22;50.89;100821.47;10440688;28;20258;-88
2022/01/06 13:25:27;;;;;;;21.77;11.10;;;;;;;7.52;50.13;100821.25;10421723;28;20558;-88
2022/01/06 13:30:31;;;;;;;26.80;12.53;;;;;;;6.98;51.88;100834.41;10430689;28;20505;-88
2022/01/06 13:35:33;;;;;;;25.30;11.97;;;;;;;7.41;50.61;100825.25;10449807;28;20200;-89
2022/01/06 13:40:44;;;;;;;26.87;12.70;;;;;;;7.61;50.13;100831.84;10439535;28;20208;-87
2022/01/06 13:45:49;;;;;;;26.13;13.50;;;;;;;8.11;49.05;100814.63;10432662;28;20265;-90
2022/01/06 13:51:05;;;;;;;22.30;12.77;;;;;;;7.95;49.54;100804.69;10428444;28;20223;-89
2022/01/06 13:56:14;;;;;;;25.17;14.03;;;;;;;8.08;48.27;100801.22;10430826;28;20204;-87
2022/01/06 14:01:24;;;;;;;25.33;13.40;;;;;;;7.62;50.59;100811.13;10425422;28;20204;-89
2022/01/06 14:06:27;;;;;;;28.40;14.03;;;;;;;7.70;49.93;100808.56;10457184;28;20219;-87
2022/01/06 14:11:29;;;;;;;27.00;13.77;;;;;;;6.68;52.28;100819.41;10461962;28;20511;-87
2022/01/06 14:16:31;;;;;;;25.47;13.10;;;;;;;6.81;52.54;100812.41;10413999;28;20476;-87
2022/01/06 14:21:34;;;;;;;25.93;13.43;;;;;;;7.09;51.22;100810.88;10411075;28;20266;-87
2022/01/06 14:26:36;;;;;;;33.63;15.73;;;;;;;7.96;49.53;100806.38;10455856;28;20591;-87
2022/01/06 14:31:38;;;;;;;28.20;14.33;;;;;;;7.22;51.33;100801.91;10454286;28;20265;-87
2022/01/06 14:36:41;;;;;;;28.33;13.70;;;;;;;7.68;49.20;100816.38;10454942;28;20233;-88
2022/01/06 14:41:43;;;;;;;36.53;14.40;;;;;;;8.00;48.82;100803.84;10466168;28;20212;-87
2022/01/06 14:46:46;;;;;;;24.83;13.77;;;;;;;7.28;50.82;100811.91;10446247;28;20208;-87
2022/01/06 14:51:49;;;;;;;28.77;13.07;;;;;;;8.31;47.92;100803.22;10433176;28;20243;-87
2022/01/06 14:56:52;;;;;;;30.27;13.40;;;;;;;7.83;48.85;100795.84;10442584;28;20200;-86
2022/01/06 15:01:57;;;;;;;26.00;12.63;;;;;;;7.49;50.13;100805.06;10437322;28;20670;-89
2022/01/06 15:06:59;;;;;;;23.87;12.77;;;;;;;7.82;49.05;100806.22;10457559;28;20258;-87
2022/01/06 15:12:02;;;;;;;23.97;12.70;;;;;;;7.73;49.34;100801.53;10460842;28;20567;-87
2022/01/06 15:17:04;;;;;;;24.57;12.90;;;;;;;7.32;49.80;100804.63;10440023;28;20540;-90
2022/01/06 15:22:07;;;;;;;24.33;11.90;;;;;;;7.05;50.36;100802.22;10445466;28;20249;-87
2022/01/06 15:27:09;;;;;;;29.17;13.90;;;;;;;7.41;49.93;100802.88;10434798;28;20216;-87
2022/01/06 15:32:11;;;;;;;30.57;13.57;;;;;;;6.89;51.40;100807.03;10451684;28;20270;-86
2022/01/06 15:37:14;;;;;;;26.70;12.90;;;;;;;7.19;50.03;100802.47;10424472;28;20208;-88
2022/01/06 15:42:16;;;;;;;28.70;16.10;;;;;;;7.25;50.06;100806.88;10448889;28;20200;-86
2022/01/06 15:47:18;;;;;;;24.53;13.00;;;;;;;7.68;48.77;100804.38;10463081;28;20269;-87
2022/01/06 15:52:20;;;;;;;37.33;19.00;;;;;;;7.00;50.61;100807.81;10440596;28;20576;-86
2022/01/06 15:57:22;;;;;;;31.20;14.00;;;;;;;7.07;49.69;100810.31;10422960;28;20204;-87
2022/01/06 16:07:46;;;;;;;30.70;13.33;;;;;;;6.69;51.13;100823.88;10443422;28;20255;-87
2022/01/06 16:12:50;;;;;;;27.40;10.73;;;;;;;7.00;50.33;100815.38;10455176;28;20257;-87
2022/01/06 16:17:52;;;;;;;22.33;10.17;;;;;;;7.02;49.98;100813.13;10451964;28;20277;-88
2022/01/06 16:22:55;;;;;;;30.30;10.83;;;;;;;6.26;52.47;100827.34;10459132;28;20253;-91
2022/01/06 16:27:57;;;;;;;31.33;12.93;;;;;;;6.53;51.25;100827.84;10444715;28;20273;-88
2022/01/06 16:33:00;;;;;;;27.77;11.30;;;;;;;6.65;51.41;100825.56;10425957;28;20248;-88
2022/01/06 16:38:03;;;;;;;17.67;9.37;;;;;;;6.49;51.72;100818.34;10429171;28;20200;-90
2022/01/06 16:43:05;;;;;;;20.63;8.97;;;;;;;6.99;50.83;100813.69;10426675;28;20207;-90
2022/01/06 16:48:10;;;;;;;17.43;9.40;;;;;;;6.70;51.25;100822.78;10418941;28;20254;-88
2022/01/06 16:53:12;;;;;;;21.40;9.30;;;;;;;6.57;51.96;100825.31;10431739;28;20714;-89
2022/01/06 16:58:15;;;;;;;14.83;7.97;;;;;;;6.84;51.52;100823.84;10437061;28;20478;-91
2022/01/06 17:03:20;;;;;;;13.27;8.10;;;;;;;6.72;51.50;100820.50;10427308;28;20650;-88
2022/01/06 17:08:22;;;;;;;17.50;9.03;;;;;;;6.87;50.72;100828.84;10430935;28;20227;-88
2022/01/06 17:13:25;;;;;;;19.87;9.07;;;;;;;6.64;51.63;100817.47;10422544;28;20223;-87
2022/01/06 17:18:27;;;;;;;18.67;10.10;;;;;;;6.51;52.11;100822.53;10451154;28;20261;-87
2022/01/06 17:23:30;;;;;;;21.60;9.90;;;;;;;6.81;51.18;100831.94;10442618;28;20231;-89
2022/01/06 17:28:34;;;;;;;24.27;12.03;;;;;;;6.55;52.05;100831.19;10435640;28;20477;-89
2022/01/06 17:33:39;;;;;;;25.33;13.37;;;;;;;6.37;52.34;100838.19;10429440;28;20490;-88
2022/01/06 17:38:42;;;;;;;19.70;12.13;;;;;;;6.50;52.12;100831.19;10435244;28;20204;-85
2022/01/06 17:43:44;;;;;;;24.13;11.53;;;;;;;6.89;51.59;100832.19;10445982;28;20208;-89
2022/01/06 17:48:46;;;;;;;24.30;12.50;;;;;;;6.65;51.46;100833.94;10438941;28;20547;-87
2022/01/06 17:53:49;;;;;;;25.13;13.07;;;;;;;6.75;51.22;100831.13;10447874;28;20235;-88
2022/01/06 17:58:52;;;;;;;28.20;14.23;;;;;;;6.56;51.48;100815.28;10456241;28;20205;-87
2022/01/06 18:03:55;;;;;;;21.07;12.03;;;;;;;6.39;51.88;100818.38;10428473;28;20544;-88
2022/01/06 18:14:20;;;;;;;25.13;12.90;;;;;;;6.47;52.35;100824.22;10436368;28;20258;-88
2022/01/06 18:19:23;;;;;;;34.30;14.33;;;;;;;6.26;51.83;100824.53;10440625;28;20286;-87
2022/01/06 18:24:26;;;;;;;25.20;12.03;;;;;;;6.31;52.56;100836.53;10446105;28;20969;-90
2022/01/06 18:29:28;;;;;;;24.70;11.97;;;;;;;6.24;52.22;100830.41;10423562;28;20272;-88
2022/01/06 18:34:43;;;;;;;20.50;11.77;;;;;;;6.53;51.27;100820.31;10443887;28;20494;-88
2022/01/06 18:39:49;;;;;;;22.13;11.27;;;;;;;6.09;52.46;100822.88;10467332;28;20564;-89
2022/01/06 18:44:51;;;;;;;21.97;11.27;;;;;;;6.29;51.96;100829.56;10441646;28;20224;-89
2022/01/06 18:49:55;;;;;;;23.40;11.70;;;;;;;6.07;52.87;100819.53;10459437;28;20212;-86
2022/01/06 18:55:01;;;;;;;21.73;10.80;;;;;;;5.99;52.23;100816.47;10437414;28;20285;-90
2022/01/06 19:00:05;;;;;;;19.90;10.77;;;;;;;6.82;50.64;100806.53;10435344;28;20231;-89
2022/01/06 19:05:08;;;;;;;23.53;10.60;;;;;;;5.96;52.75;100798.34;10442752;28;20227;-89
2022/01/06 19:10:12;;;;;;;19.63;10.30;;;;;;;6.61;51.14;100801.28;10437952;28;20235;-87
2022/01/06 19:15:16;;;;;;;20.23;10.80;;;;;;;5.96;52.65;100801.13;10457263;28;20451;-89
2022/01/06 19:20:19;;;;;;;18.93;10.50;;;;;;;6.19;52.15;100793.31;10434183;28;20575;-89
2022/01/06 19:25:22;;;;;;;18.87;10.23;;;;;;;6.22;52.08;100787.16;10440656;28;20254;-88
2022/01/06 19:30:25;;;;;;;17.97;9.90;;;;;;;6.48;51.99;100791.56;10446175;28;20204;-89
2022/01/06 19:35:48;;;;;;;19.23;9.67;;;;;;;6.06;52.35;100790.00;10447771;28;20212;-89
2022/01/06 19:40:51;;;;;;;21.60;9.43;;;;;;;6.39;51.36;100782.09;10453021;28;20504;-88
2022/01/06 19:45:53;;;;;;;16.97;9.50;;;;;;;6.50;50.74;100770.63;10462458;28;20200;-87
2022/01/06 19:50:57;;;;;;;18.20;9.43;;;;;;;6.13;51.93;100771.00;10454119;28;20266;-86
2022/01/06 19:56:05;;;;;;;17.50;8.80;;;;;;;5.64;53.31;100784.69;10437009;28;20227;-88
2022/01/06 20:01:09;;;;;;;17.33;8.80;;;;;;;5.73;52.71;100773.78;10448712;28;20689;-87
2022/01/06 20:06:13;;;;;;;17.97;8.00;;;;;;;6.35;51.64;100770.66;10439912;28;20690;-87
2022/01/06 20:11:15;;;;;;;21.50;9.43;;;;;;;5.87;52.21;100763.78;10431703;28;20212;-88
2022/01/06 20:16:18;;;;;;;19.70;9.73;;;;;;;6.14;51.20;100757.88;10458885;28;20232;-89
2022/01/06 20:21:22;;;;;;;18.93;7.40;;;;;;;5.75;52.45;100757.63;10429868;28;20213;-88
2022/01/06 20:26:26;;;;;;;14.10;7.07;;;;;;;5.90;52.64;100743.72;10441439;28;20239;-87
2022/01/06 20:31:28;;;;;;;15.43;8.10;;;;;;;6.30;51.61;100744.75;10425103;28;20266;-88
2022/01/06 20:36:46;;;;;;;15.57;7.53;;;;;;;6.05;51.88;100743.69;10452695;28;20624;-88
2022/01/06 20:41:55;;;;;;;15.40;8.37;;;;;;;5.89;52.04;100725.31;10444207;28;20665;-89
2022/01/06 20:47:09;;;;;;;16.47;7.53;;;;;;;5.40;52.90;100731.44;10454784;28;20478;-88
2022/01/06 20:52:11;;;;;;;19.23;7.87;;;;;;;5.32;53.09;100709.69;10446780;28;20221;-88
2022/01/06 20:57:14;;;;;;;16.13;7.77;;;;;;;5.76;51.72;100693.25;10450919;28;20270;-89
2022/01/06 21:02:20;;;;;;;17.43;7.47;;;;;;;5.70;51.82;100699.06;10440031;28;20695;-90
2022/01/06 21:07:24;;;;;;;17.03;7.70;;;;;;;5.88;51.17;100694.91;10451123;28;20641;-89
2022/01/06 21:12:29;;;;;;;11.27;5.97;;;;;;;5.71;51.88;100689.59;10445492;28;20585;-89
2022/01/06 21:17:33;;;;;;;16.70;6.53;;;;;;;5.79;51.23;100683.50;10435020;28;20227;-90
2022/01/06 21:22:38;;;;;;;25.73;8.80;;;;;;;5.54;52.61;100666.78;10462245;28;20201;-89
2022/01/06 21:27:41;;;;;;;11.33;6.43;;;;;;;5.67;51.29;100671.78;10453311;28;20203;-88
2022/01/06 21:32:46;;;;;;;13.90;7.03;;;;;;;5.62;51.79;100672.63;10449503;28;20227;-87
2022/01/06 21:37:49;;;;;;;13.97;6.87;;;;;;;5.84;51.01;100657.53;10425017;28;20209;-89
2022/01/06 21:42:53;;;;;;;15.97;6.80;;;;;;;6.02;50.29;100657.78;10432163;28;20201;-89
2022/01/06 21:47:57;;;;;;;11.63;5.70;;;;;;;6.24;49.90;100651.84;10439571;28;20630;-89
2022/01/06 21:53:00;;;;;;;11.70;5.57;;;;;;;5.68;51.20;100654.78;10437996;28;20566;-87
2022/01/06 21:58:02;;;;;;;19.07;7.43;;;;;;;6.11;49.79;100653.28;10420354;28;20274;-88
2022/01/06 22:03:07;;;;;;;13.97;6.40;;;;;;;5.72;50.54;100657.81;10437043;28;20287;-88
2022/01/06 22:08:09;;;;;;;16.77;7.63;;;;;;;5.37;50.83;100648.41;10426001;28;20509;-88
2022/01/06 22:13:12;;;;;;;12.00;5.00;;;;;;;5.72;50.41;100639.16;10462910;28;20218;-86
2022/01/06 22:18:14;;;;;;;10.17;5.10;;;;;;;5.37;50.77;100628.06;10431798;28;20236;-87
2022/01/06 22:23:16;;;;;;;14.87;5.73;;;;;;;5.78;50.01;100631.66;10429996;28;20205;-88
2022/01/06 22:28:18;;;;;;;14.23;5.90;;;;;;;5.80;49.45;100641.41;10454843;28;20612;-88
2022/01/06 22:33:24;;;;;;;10.87;4.57;;;;;;;5.56;50.47;100634.72;10440335;28;20224;-87
2022/01/06 22:38:29;;;;;;;15.63;5.17;;;;;;;5.46;50.38;100634.72;10457478;28;20663;-87
2022/01/06 22:43:32;;;;;;;7.30;4.23;;;;;;;5.53;49.83;100628.88;10466739;28;20230;-88
2022/01/06 22:48:38;;;;;;;10.03;4.53;;;;;;;5.06;50.95;100628.06;10505306;28;20207;-86
2022/01/06 22:53:45;;;;;;;9.40;4.13;;;;;;;4.75;51.29;100629.19;10491778;28;20623;-88
2022/01/06 22:58:47;;;;;;;9.53;3.70;;;;;;;5.92;48.73;100610.41;10476496;28;20526;-88
2022/01/06 23:04:19;;;;;;;14.33;5.60;;;;;;;5.41;49.30;100606.91;10440931;28;20216;-87
2022/01/06 23:10:34;;;;;;;6.47;3.77;;;;;;;5.76;48.55;100600.44;10261280;28;20313;-86
2022/01/06 23:16:18;;;;;;;11.40;3.60;;;;;;;5.37;49.78;100595.47;10249171;28;20721;-88
2022/01/06 23:21:20;;;;;;;10.03;3.60;;;;;;;5.29;49.25;100590.47;10414711;28;20655;-86
2022/01/06 23:26:22;;;;;;;11.87;4.13;;;;;;;5.69;48.30;100595.09;10382695;28;20266;-86
2022/01/06 23:31:25;;;;;;;8.70;3.33;;;;;;;5.55;48.14;100582.06;10403477;28;20212;-85